Time;durP1;ratioP1;P1;durP2;ratioP2;P2;SDS_P1;SDS_P2;PMS_P1;PMS_P2;Temp;Humidity;BMP_temperature;BMP_pressure;BME280_temperature;BME280_humidity;BME280_pressure;Samples;Min_cycle;Max_cycle;Signal;HPM_P1;HPM_P2
2024/01/20 00:01:59;;;;;;;21.35;5.85;;;;;;;2.05;100.00;101045.56;4987848;28;20030;-73
2024/01/20 00:04:24;;;;;;;15.02;5.10;;;;;;;2.04;100.00;101057.91;4987664;28;20052;-74
2024/01/20 00:06:49;;;;;;;13.73;5.22;;;;;;;2.13;100.00;101079.31;4987593;28;20415;-73
2024/01/20 00:09:16;;;;;;;16.93;5.43;;;;;;;2.02;100.00;101067.69;4970130;28;20058;-73
2024/01/20 00:11:41;;;;;;;15.35;4.63;;;;;;;1.89;100.00;101050.97;4959827;28;20385;-73
2024/01/20 00:14:07;;;;;;;13.40;5.25;;;;;;;2.07;100.00;101096.38;4983459;28;20125;-73
2024/01/20 00:16:32;;;;;;;16.45;4.95;;;;;;;2.02;100.00;101096.66;4986147;28;20037;-73
2024/01/20 00:18:58;;;;;;;10.70;5.47;;;;;;;2.07;100.00;101088.47;4987491;28;20037;-73
2024/01/20 00:21:23;;;;;;;20.48;5.82;;;;;;;1.82;100.00;101063.69;4986119;28;20031;-73
2024/01/20 00:23:49;;;;;;;20.88;5.03;;;;;;;1.88;100.00;101073.00;4954007;28;20041;-73
2024/01/20 00:26:15;;;;;;;12.70;4.47;;;;;;;1.81;100.00;101087.50;4961077;28;20039;-73
2024/01/20 00:28:40;;;;;;;18.52;5.05;;;;;;;1.91;100.00;101107.03;4980063;28;20030;-73
2024/01/20 00:31:06;;;;;;;18.50;5.88;;;;;;;1.87;100.00;101102.91;4985893;28;20030;-73
2024/01/20 00:33:31;;;;;;;23.23;5.97;;;;;;;1.88;100.00;101115.13;4955654;28;20464;-73
2024/01/20 00:35:56;;;;;;;19.52;5.47;;;;;;;1.95;100.00;101126.97;4986613;28;20053;-72
2024/01/20 00:38:22;;;;;;;14.38;5.50;;;;;;;1.75;100.00;101115.06;4969560;28;20452;-73
2024/01/20 00:40:47;;;;;;;23.05;5.80;;;;;;;1.64;100.00;101123.63;4987078;28;20030;-72
2024/01/20 00:43:13;;;;;;;17.92;5.03;;;;;;;1.70;100.00;101130.28;4969353;28;20037;-74
2024/01/20 00:45:39;;;;;;;;;;;;;;;1.66;100.00;101137.56;4968739;28;20034;-73
2024/01/20 00:48:04;;;;;;;21.05;6.72;;;;;;;1.75;100.00;101156.34;4968613;28;20059;-73
2024/01/20 00:50:29;;;;;;;18.50;7.20;;;;;;;1.81;100.00;101166.50;4977882;28;20128;-73
2024/01/20 00:52:55;;;;;;;17.75;5.88;;;;;;;1.73;100.00;101158.22;4968994;28;20129;-74
2024/01/20 00:55:20;;;;;;;22.75;7.53;;;;;;;1.77;100.00;101178.97;4968751;28;20049;-74
2024/01/20 00:57:46;;;;;;;24.58;7.57;;;;;;;1.93;100.00;101194.69;4986854;28;20290;-74
2024/01/20 01:00:11;;;;;;;21.92;6.25;;;;;;;1.89;100.00;101186.13;4953306;28;20030;-73
2024/01/20 01:02:38;;;;;;;26.02;6.25;;;;;;;1.87;100.00;101181.88;4944848;28;20026;-73
2024/01/20 01:05:05;;;;;;;31.95;7.28;;;;;;;1.86;100.00;101174.94;4980955;28;20057;-74
2024/01/20 01:07:31;;;;;;;21.63;8.02;;;;;;;2.03;100.00;101187.03;4968026;28;20035;-74
2024/01/20 01:09:56;;;;;;;17.13;4.88;;;;;;;1.98;100.00;101176.81;4986037;28;20049;-73
2024/01/20 01:12:22;;;;;;;26.58;6.97;;;;;;;1.96;100.00;101165.50;4951797;28;20060;-73
2024/01/20 01:14:47;;;;;;;33.25;7.18;;;;;;;1.96;100.00;101165.50;4953254;28;20034;-73
2024/01/20 01:17:12;;;;;;;22.63;6.50;;;;;;;1.96;100.00;101168.16;4969186;28;20092;-74
2024/01/20 01:19:38;;;;;;;24.05;6.40;;;;;;;2.02;100.00;101175.66;4986692;28;20153;-74
2024/01/20 01:22:03;;;;;;;20.02;5.88;;;;;;;1.94;100.00;101167.41;4969197;28;20405;-73
2024/01/20 01:24:29;;;;;;;21.15;5.13;;;;;;;1.97;100.00;101161.13;4949857;28;20109;-73
2024/01/20 01:26:54;;;;;;;15.25;5.13;;;;;;;2.03;100.00;101166.81;4982005;28;20478;-74
2024/01/20 01:29:19;;;;;;;42.75;6.57;;;;;;;2.04;100.00;101151.88;4984826;28;20561;-74
2024/01/20 01:31:45;;;;;;;15.07;5.20;;;;;;;1.99;100.00;101144.28;4968883;28;20034;-75
2024/01/20 01:34:10;;;;;;;23.70;4.57;;;;;;;2.09;100.00;101166.44;4986060;28;20038;-75
2024/01/20 01:36:36;;;;;;;28.02;7.03;;;;;;;2.03;100.00;101165.97;4986381;28;20281;-75
2024/01/20 01:39:01;;;;;;;15.68;5.40;;;;;;;1.99;100.00;101152.16;4986664;28;20046;-75
2024/01/20 01:41:27;;;;;;;17.77;5.72;;;;;;;2.03;100.00;101174.72;4986200;28;20042;-75
2024/01/20 01:43:52;;;;;;;15.82;4.85;;;;;;;2.01;100.00;101167.84;4984939;28;20061;-75
2024/01/20 01:46:18;;;;;;;16.98;5.07;;;;;;;2.06;100.00;101165.78;4985902;28;20120;-75
2024/01/20 01:48:44;;;;;;;18.38;4.82;;;;;;;2.03;100.00;101144.91;4986391;28;20042;-76
2024/01/20 01:51:12;;;;;;;14.70;4.28;;;;;;;2.01;100.00;101145.00;4952652;28;20062;-75
2024/01/20 01:53:39;;;;;;;17.30;5.40;;;;;;;2.02;100.00;101159.03;4969105;28;20108;-75
2024/01/20 01:56:06;;;;;;;10.50;4.90;;;;;;;1.86;100.00;101127.56;4960266;28;20548;-75
2024/01/20 01:58:32;;;;;;;15.63;5.63;;;;;;;1.93;100.00;101142.00;4951089;28;20041;-75
2024/01/20 02:00:58;;;;;;;20.67;4.82;;;;;;;1.99;100.00;101138.13;4965462;28;20548;-75
2024/01/20 02:03:23;;;;;;;20.27;4.78;;;;;;;1.90;100.00;101136.94;4971330;28;20042;-75
2024/01/20 02:05:48;;;;;;;13.20;5.10;;;;;;;1.85;100.00;101146.91;4989933;28;20022;-75
2024/01/20 02:08:14;;;;;;;16.75;4.93;;;;;;;1.96;100.00;101160.25;4972158;28;20491;-75
2024/01/20 02:10:40;;;;;;;20.23;5.10;;;;;;;1.92;100.00;101174.56;4965890;28;20018;-75
2024/01/20 02:13:06;;;;;;;31.25;6.65;;;;;;;1.90;100.00;101176.44;4978064;28;20038;-76
2024/01/20 02:15:33;;;;;;;20.48;5.15;;;;;;;1.96;100.00;101177.84;4958244;28;20026;-75
2024/01/20 02:17:58;;;;;;;24.73;4.82;;;;;;;1.94;100.00;101183.19;4972305;28;20038;-75
2024/01/20 02:20:24;;;;;;;21.02;5.25;;;;;;;2.02;100.00;101172.19;4972337;28;20029;-75
2024/01/20 02:22:50;;;;;;;17.75;3.83;;;;;;;2.04;100.00;101173.78;4990145;28;20026;-76
2024/01/20 02:25:16;;;;;;;20.52;4.82;;;;;;;1.96;100.00;101157.63;4986943;28;20701;-75
2024/01/20 02:27:41;;;;;;;24.02;4.57;;;;;;;1.93;100.00;101151.72;4954530;28;20030;-75
2024/01/20 02:30:07;;;;;;;16.52;4.78;;;;;;;2.09;100.00;101169.06;4954245;28;20129;-76
2024/01/20 02:32:33;;;;;;;21.42;4.82;;;;;;;1.96;100.00;101147.06;4987711;28;20026;-76
2024/01/20 02:34:58;;;;;;;19.30;5.25;;;;;;;1.98;100.00;101134.66;4955262;28;20478;-75
2024/01/20 02:37:23;;;;;;;16.20;3.50;;;;;;;2.03;100.00;101129.09;4971729;28;20044;-75
2024/01/20 02:39:49;;;;;;;15.00;5.95;;;;;;;1.80;100.00;101112.13;4988435;28;20050;-76
2024/01/20 02:42:14;;;;;;;23.20;4.13;;;;;;;1.82;100.00;101110.25;4988263;28;20045;-75
2024/01/20 02:44:40;;;;;;;23.98;5.22;;;;;;;1.75;100.00;101106.31;4955799;28;20036;-76
2024/01/20 02:47:05;;;;;;;16.52;4.57;;;;;;;1.81;100.00;101109.41;4988930;28;20037;-76
2024/01/20 02:49:31;;;;;;;24.48;5.53;;;;;;;1.83;100.00;101117.22;4987778;28;20108;-75
2024/01/20 02:51:57;;;;;;;;;;;;;;;1.76;100.00;101094.84;4989714;28;20478;-75
2024/01/20 02:54:22;;;;;;;20.05;5.22;;;;;;;1.82;100.00;101111.09;4985474;28;19916;-75
2024/01/20 02:56:48;;;;;;;13.07;4.30;;;;;;;1.91;100.00;101104.41;4982468;28;20034;-75
2024/01/20 02:59:13;;;;;;;23.03;5.13;;;;;;;1.81;100.00;101095.41;4970692;28;20049;-75
2024/01/20 03:01:39;;;;;;;26.35;5.40;;;;;;;1.85;100.00;101107.41;4971738;28;20285;-75
2024/01/20 03:04:04;;;;;;;16.23;3.72;;;;;;;1.76;100.00;101087.81;4971404;28;20030;-75
2024/01/20 03:06:29;;;;;;;12.10;4.22;;;;;;;1.95;100.00;101108.53;4971006;28;20501;-75
2024/01/20 03:08:55;;;;;;;18.83;4.43;;;;;;;1.72;100.00;101073.13;4988891;28;20042;-75
2024/01/20 03:11:20;;;;;;;13.90;4.53;;;;;;;1.76;100.00;101090.44;4979380;28;20089;-75
2024/01/20 03:13:46;;;;;;;25.45;5.30;;;;;;;1.89;100.00;101101.00;4987488;28;20352;-75
2024/01/20 03:16:11;;;;;;;22.00;5.00;;;;;;;1.94;100.00;101096.28;4987022;28;20038;-75
2024/01/20 03:18:40;;;;;;;15.60;5.28;;;;;;;1.84;100.00;101087.31;4987512;28;20038;-75
2024/01/20 03:21:06;;;;;;;19.77;4.90;;;;;;;1.85;100.00;101094.25;4987376;28;20512;-75
2024/01/20 03:23:31;;;;;;;;;;;;;;;1.92;100.00;101106.09;4988807;28;20031;-75
2024/01/20 03:25:56;;;;;;;22.15;5.65;;;;;;;1.84;100.00;101076.78;4987224;28;19917;-75
2024/01/20 03:28:22;;;;;;;19.60;4.65;;;;;;;1.92;100.00;101079.78;4988155;28;20034;-75
2024/01/20 03:30:47;;;;;;;8.73;3.92;;;;;;;1.82;100.00;101058.44;4954407;28;20536;-75
2024/01/20 03:33:13;;;;;;;19.35;4.63;;;;;;;1.85;100.00;101066.16;4965680;28;20101;-75
2024/01/20 03:35:38;;;;;;;18.95;4.55;;;;;;;1.83;100.00;101062.78;4984685;28;20125;-75
2024/01/20 03:38:04;;;;;;;16.83;4.75;;;;;;;1.95;100.00;101074.31;4969199;28;20049;-75
2024/01/20 03:40:29;;;;;;;18.00;5.28;;;;;;;1.83;100.00;101054.03;4987063;28;20134;-75
2024/01/20 03:42:55;;;;;;;15.23;4.70;;;;;;;1.73;100.00;101052.91;4952127;28;20039;-75
2024/01/20 03:45:20;;;;;;;14.83;5.10;;;;;;;1.70;100.00;101051.31;4983353;28;20293;-75
2024/01/20 03:47:45;;;;;;;20.10;4.20;;;;;;;1.76;100.00;101073.81;4971130;28;21205;-75
2024/01/20 03:50:11;;;;;;;12.90;4.50;;;;;;;1.67;100.00;101064.69;4987915;28;20822;-75
2024/01/20 03:52:36;;;;;;;16.48;4.90;;;;;;;1.70;100.00;101077.66;4988102;28;20340;-74
2024/01/20 03:55:02;;;;;;;18.85;6.28;;;;;;;1.77;100.00;101097.38;4987750;28;20036;-75
2024/01/20 03:57:27;;;;;;;16.05;5.20;;;;;;;1.84;100.00;101088.13;4987682;28;20386;-75
2024/01/20 03:59:53;;;;;;;26.55;6.00;;;;;;;1.81;100.00;101087.50;4987824;28;20035;-74
2024/01/20 04:02:18;;;;;;;20.27;5.38;;;;;;;1.76;100.00;101085.16;4954434;28;20046;-75
2024/01/20 04:04:43;;;;;;;16.52;5.05;;;;;;;1.83;100.00;101106.69;4986363;28;20029;-75
2024/01/20 04:07:10;;;;;;;23.48;5.10;;;;;;;1.82;100.00;101094.44;4969801;28;20689;-74
2024/01/20 04:09:35;;;;;;;18.48;5.03;;;;;;;1.89;100.00;101103.66;4985728;28;20124;-74
2024/01/20 04:12:01;;;;;;;18.40;5.43;;;;;;;1.73;100.00;101095.03;4987624;28;20117;-75
2024/01/20 04:14:26;;;;;;;15.80;5.47;;;;;;;1.78;100.00;101106.13;4969984;28;20076;-74
2024/01/20 04:16:51;;;;;;;15.93;5.40;;;;;;;1.88;100.00;101128.31;4986057;28;20034;-74
2024/01/20 04:19:17;;;;;;;15.85;4.63;;;;;;;1.91;100.00;101125.47;4969744;28;20038;-74
2024/01/20 04:21:43;;;;;;;23.42;6.63;;;;;;;1.81;100.00;101098.88;4970109;28;20092;-75
2024/01/20 04:24:08;;;;;;;23.63;7.35;;;;;;;1.87;100.00;101126.59;4987247;28;20041;-74
2024/01/20 04:26:34;;;;;;;21.30;5.65;;;;;;;1.89;100.00;101154.50;4961124;28;20507;-75
2024/01/20 04:28:59;;;;;;;14.23;6.57;;;;;;;1.93;100.00;101170.16;4960059;28;20039;-75
2024/01/20 04:31:25;;;;;;;20.98;6.25;;;;;;;1.65;100.00;101151.63;4981745;28;20070;-74
2024/01/20 04:33:53;;;;;;;23.45;6.90;;;;;;;1.62;100.00;101183.41;4969754;28;20052;-74
2024/01/20 04:36:18;;;;;;;25.15;7.30;;;;;;;1.61;100.00;101186.97;4966639;28;20038;-74
2024/01/20 04:38:44;;;;;;;25.40;7.95;;;;;;;1.64;100.00;101201.75;4969671;28;20093;-74
2024/01/20 04:41:09;;;;;;;20.73;7.10;;;;;;;1.72;100.00;101224.97;4986807;28;20018;-74
2024/01/20 04:43:34;;;;;;;18.00;7.43;;;;;;;1.72;100.00;101220.56;4977674;28;20328;-74
2024/01/20 04:46:00;;;;;;;21.33;8.35;;;;;;;1.69;100.00;101226.84;4962986;28;20286;-74
2024/01/20 04:48:25;;;;;;;18.50;6.70;;;;;;;1.66;100.00;101219.16;4984158;28;20072;-74
2024/01/20 04:50:51;;;;;;;15.38;6.97;;;;;;;1.63;100.00;101219.31;4985467;28;20285;-75
2024/01/20 04:53:16;;;;;;;20.30;7.47;;;;;;;1.62;100.00;101198.38;4969089;28;20501;-75
2024/01/20 04:55:41;;;;;;;30.60;9.43;;;;;;;1.72;100.00;101193.38;4986016;28;20760;-74
2024/01/20 04:58:07;;;;;;;12.73;6.53;;;;;;;1.82;100.00;101215.56;4968903;28;20650;-74
2024/01/20 05:00:33;;;;;;;20.53;7.37;;;;;;;1.61;100.00;101171.19;4969143;28;20285;-74
2024/01/20 05:02:59;;;;;;;25.42;9.52;;;;;;;1.71;100.00;101186.41;4951774;28;20289;-74
2024/01/20 05:05:24;;;;;;;18.48;7.72;;;;;;;1.54;100.00;101169.88;4969071;28;20033;-74
2024/01/20 05:07:49;;;;;;;18.80;7.70;;;;;;;1.65;100.00;101182.38;4985521;28;20034;-74
2024/01/20 05:10:15;;;;;;;25.87;8.40;;;;;;;1.67;100.00;101183.97;4968421;28;20285;-74
2024/01/20 05:12:40;;;;;;;23.17;7.77;;;;;;;1.65;100.00;101187.66;4979159;28;21248;-74
2024/01/20 05:15:10;;;;;;;24.83;9.20;;;;;;;1.76;100.00;101192.25;4978786;28;20800;-75
2024/01/20 05:17:36;;;;;;;21.80;7.53;;;;;;;1.67;100.00;101181.34;4976981;28;20305;-74
2024/01/20 05:20:01;;;;;;;20.25;7.38;;;;;;;1.66;100.00;101174.41;4979458;28;20517;-73
2024/01/20 05:22:27;;;;;;;19.63;7.90;;;;;;;1.59;100.00;101167.81;4959675;28;20030;-74
2024/01/20 05:24:52;;;;;;;15.75;7.03;;;;;;;1.64;100.00;101183.34;4968829;28;20041;-74
2024/01/20 05:27:17;;;;;;;20.55;6.70;;;;;;;1.64;100.00;101197.34;4985959;28;20129;-74
2024/01/20 05:29:43;;;;;;;23.23;10.05;;;;;;;1.64;100.00;101188.59;4985922;28;20026;-74
2024/01/20 05:32:08;;;;;;;15.98;7.00;;;;;;;1.71;100.00;101202.22;4968837;28;20043;-74
2024/01/20 05:34:33;;;;;;;25.67;8.20;;;;;;;1.71;100.00;101183.78;4968549;28;20037;-74
2024/01/20 05:36:59;;;;;;;22.45;7.90;;;;;;;1.66;100.00;101174.41;4969043;28;20015;-74
2024/01/20 05:39:24;;;;;;;26.13;9.47;;;;;;;1.63;100.00;101179.84;4989927;28;20042;-73
2024/01/20 05:41:49;;;;;;;23.33;7.67;;;;;;;1.74;100.00;101196.78;4981947;28;20282;-73
2024/01/20 05:44:15;;;;;;;28.60;9.40;;;;;;;1.73;100.00;101189.81;4978807;28;20340;-74
2024/01/20 05:46:40;;;;;;;22.83;8.83;;;;;;;1.69;100.00;101184.72;4972725;28;20285;-74
2024/01/20 05:49:06;;;;;;;20.05;8.35;;;;;;;1.59;100.00;101183.63;4973040;28;20270;-74
2024/01/20 05:51:31;;;;;;;29.98;9.48;;;;;;;1.52;100.00;101187.53;4990094;28;20042;-73
2024/01/20 05:53:57;;;;;;;21.00;8.07;;;;;;;1.67;100.00;101210.31;4973074;28;20042;-73
2024/01/20 05:56:23;;;;;;;30.65;9.20;;;;;;;1.71;100.00;101207.47;4979127;28;20033;-74
2024/01/20 05:58:48;;;;;;;23.25;8.57;;;;;;;1.72;100.00;101211.81;4972645;28;20042;-74
2024/01/20 06:01:15;;;;;;;23.63;8.77;;;;;;;1.64;100.00;101207.88;4964374;28;20035;-74
2024/01/20 06:03:41;;;;;;;20.95;8.40;;;;;;;1.81;100.00;101216.50;4972516;28;20030;-73
2024/01/20 06:06:06;;;;;;;35.75;10.55;;;;;;;1.70;100.00;101196.09;4989717;28;20104;-73
2024/01/20 06:08:31;;;;;;;22.77;8.68;;;;;;;1.79;100.00;101210.50;4989607;28;20034;-73
2024/01/20 06:10:57;;;;;;;23.05;8.95;;;;;;;1.79;100.00;101215.75;4979249;28;20025;-74
2024/01/20 06:13:22;;;;;;;17.48;7.95;;;;;;;1.77;100.00;101210.56;4985450;28;20038;-73
2024/01/20 06:15:47;;;;;;;18.08;8.07;;;;;;;1.83;100.00;101235.69;4989536;28;20112;-73
2024/01/20 06:18:13;;;;;;;21.63;8.50;;;;;;;1.86;100.00;101227.59;4971857;28;20040;-73
2024/01/20 06:20:38;;;;;;;17.35;7.80;;;;;;;1.68;100.00;101201.44;4989736;28;20277;-73
2024/01/20 06:23:03;;;;;;;21.65;9.50;;;;;;;1.77;100.00;101226.38;4972263;28;20049;-73
2024/01/20 06:25:29;;;;;;;19.40;9.00;;;;;;;1.93;100.00;101239.44;4989192;28;20050;-73
2024/01/20 06:27:54;;;;;;;25.38;9.88;;;;;;;1.79;100.00;101236.81;4972094;28;20286;-74
2024/01/20 06:30:20;;;;;;;21.27;8.98;;;;;;;1.81;100.00;101230.53;4971724;28;20437;-73
2024/01/20 06:32:45;;;;;;;27.80;9.20;;;;;;;1.96;100.00;101239.25;4986403;28;20042;-74
2024/01/20 06:35:11;;;;;;;22.55;9.20;;;;;;;1.87;100.00;101229.28;4989442;28;20286;-73
2024/01/20 06:37:36;;;;;;;25.85;9.27;;;;;;;1.89;100.00;101230.03;4969906;28;20401;-73
2024/01/20 06:40:02;;;;;;;32.60;10.70;;;;;;;1.95;100.00;101258.63;4988674;28;20034;-74
2024/01/20 06:42:27;;;;;;;24.42;11.23;;;;;;;1.86;100.00;101238.13;4988632;28;20030;-74
2024/01/20 06:44:53;;;;;;;30.33;10.50;;;;;;;1.90;100.00;101255.44;4963611;28;20085;-73
2024/01/20 06:47:18;;;;;;;29.73;10.43;;;;;;;1.87;100.00;101250.34;4971691;28;20783;-73
2024/01/20 06:49:49;;;;;;;33.67;10.75;;;;;;;1.93;100.00;101254.41;4970858;28;20669;-74
2024/01/20 06:52:14;;;;;;;29.80;10.27;;;;;;;2.06;100.00;101261.47;4971612;28;20069;-73
2024/01/20 06:54:40;;;;;;;21.52;9.35;;;;;;;1.95;100.00;101244.63;4971394;28;20062;-73
2024/01/20 06:57:05;;;;;;;24.53;11.20;;;;;;;1.97;100.00;101266.47;4988985;28;20034;-73
2024/01/20 06:59:30;;;;;;;27.90;11.13;;;;;;;1.91;100.00;101262.41;4988577;28;20296;-73
2024/01/20 07:01:56;;;;;;;22.77;8.95;;;;;;;1.97;100.00;101262.03;4971530;28;20101;-73
2024/01/20 07:04:21;;;;;;;22.00;9.23;;;;;;;1.95;100.00;101257.81;4988692;28;20042;-72
2024/01/20 07:06:46;;;;;;;21.42;9.68;;;;;;;1.95;100.00;101273.59;4988495;28;20034;-74
2024/01/20 07:09:12;;;;;;;34.97;11.70;;;;;;;2.01;100.00;101281.94;4988844;28;20114;-73
2024/01/20 07:11:37;;;;;;;30.13;10.63;;;;;;;2.05;100.00;101290.53;4987531;28;20066;-73
2024/01/20 07:14:02;;;;;;;23.83;11.57;;;;;;;1.96;100.00;101276.13;4971047;28;20367;-72
2024/01/20 07:16:28;;;;;;;26.67;11.67;;;;;;;2.01;100.00;101284.56;4988365;28;20323;-74
2024/01/20 07:18:53;;;;;;;26.60;10.10;;;;;;;2.05;100.00;101275.56;4987349;28;20296;-73
2024/01/20 07:21:18;;;;;;;29.20;9.87;;;;;;;2.08;100.00;101280.66;4970949;28;20777;-73
2024/01/20 07:23:44;;;;;;;23.83;11.30;;;;;;;1.96;100.00;101249.78;4971243;28;20304;-73
2024/01/20 07:26:09;;;;;;;24.43;11.87;;;;;;;1.98;100.00;101252.34;4970382;28;20340;-73
2024/01/20 07:28:34;;;;;;;25.77;13.05;;;;;;;1.95;100.00;101255.16;4954887;28;20281;-73
2024/01/20 07:31:00;;;;;;;26.67;10.77;;;;;;;1.92;100.00;101248.31;4987390;28;20030;-74
2024/01/20 07:33:25;;;;;;;26.63;11.57;;;;;;;1.89;100.00;101259.84;4971068;28;20031;-73
2024/01/20 07:35:50;;;;;;;21.73;12.88;;;;;;;1.95;100.00;101274.44;4988127;28;20050;-74
2024/01/20 07:38:16;;;;;;;28.20;13.48;;;;;;;1.94;100.00;101266.63;4962624;28;20031;-73
2024/01/20 07:40:41;;;;;;;28.23;15.02;;;;;;;1.86;100.00;101278.47;4970664;28;20042;-73
2024/01/20 07:43:07;;;;;;;30.38;13.00;;;;;;;1.83;100.00;101285.72;4986825;28;20045;-73
2024/01/20 07:45:32;;;;;;;26.02;13.45;;;;;;;1.92;100.00;101300.97;4988064;28;20565;-73
2024/01/20 07:47:59;;;;;;;27.75;14.13;;;;;;;1.85;100.00;101279.44;4985073;28;20027;-74
2024/01/20 07:50:24;;;;;;;29.48;13.65;;;;;;;1.96;100.00;101296.34;4970386;28;20026;-74
2024/01/20 07:52:49;;;;;;;21.38;13.50;;;;;;;1.89;100.00;101282.69;4986726;28;20038;-73
2024/01/20 07:55:15;;;;;;;26.25;14.90;;;;;;;1.92;100.00;101284.31;4982045;28;20745;-73
2024/01/20 07:57:40;;;;;;;32.47;14.63;;;;;;;2.00;100.00;101293.44;4986214;28;20033;-73
2024/01/20 08:00:08;;;;;;;37.00;15.10;;;;;;;2.05;100.00;101299.25;4986939;28;20062;-72
2024/01/20 08:02:37;;;;;;;33.30;13.90;;;;;;;2.14;100.00;101299.66;4968816;28;20277;-73
2024/01/20 08:05:04;;;;;;;29.02;13.73;;;;;;;2.03;100.00;101295.88;4988007;28;20026;-73
2024/01/20 08:07:29;;;;;;;29.73;14.52;;;;;;;1.97;100.00;101288.38;4987640;28;20022;-74
2024/01/20 08:09:54;;;;;;;35.03;14.82;;;;;;;1.95;100.00;101305.19;4987733;28;20046;-73
2024/01/20 08:12:20;;;;;;;24.23;13.30;;;;;;;1.84;100.00;101305.84;4970333;28;20050;-73
2024/01/20 08:14:45;;;;;;;28.38;14.30;;;;;;;1.84;100.00;101324.28;4987240;28;20030;-73
2024/01/20 08:17:10;;;;;;;30.30;15.00;;;;;;;1.95;100.00;101358.72;4987630;28;20042;-73
2024/01/20 08:19:36;;;;;;;28.65;16.27;;;;;;;1.90;100.00;101347.63;4987359;28;20039;-73
2024/01/20 08:22:01;;;;;;;30.60;15.70;;;;;;;1.85;100.00;101354.91;4987694;28;20034;-72
2024/01/20 08:24:27;;;;;;;31.85;16.55;;;;;;;1.82;100.00;101365.63;4987241;28;20042;-73
2024/01/20 08:26:52;;;;;;;37.70;18.98;;;;;;;1.86;100.00;101390.84;4986315;28;20105;-73
2024/01/20 08:29:18;;;;;;;34.55;18.25;;;;;;;1.91;100.00;101407.22;4987183;28;20401;-73
2024/01/20 08:31:43;;;;;;;39.80;19.13;;;;;;;1.80;100.00;101385.94;5032035;23;20042;-79
2024/01/20 08:34:08;;;;;;;34.63;16.75;;;;;;;1.76;100.00;101381.81;5009709;28;20040;-79
2024/01/20 08:36:34;;;;;;;48.40;18.20;;;;;;;1.81;100.00;101398.19;4993082;28;20392;-77
2024/01/20 08:38:59;;;;;;;35.72;17.88;;;;;;;1.77;100.00;101388.75;5009396;28;20273;-76
2024/01/20 08:41:25;;;;;;;42.08;18.45;;;;;;;1.71;100.00;101358.41;5023069;28;20676;-76
2024/01/20 08:43:51;;;;;;;34.70;17.73;;;;;;;1.74;100.00;101367.91;5017403;28;20048;-77
2024/01/20 08:46:16;;;;;;;27.20;16.38;;;;;;;1.73;100.00;101363.53;5026634;28;20292;-77
2024/01/20 08:48:42;;;;;;;38.10;16.83;;;;;;;1.75;100.00;101372.22;5025279;28;20033;-76
2024/01/20 08:51:07;;;;;;;37.42;17.83;;;;;;;1.86;100.00;101381.16;5000427;28;20828;-77
2024/01/20 08:53:33;;;;;;;38.00;18.83;;;;;;;1.81;100.00;101358.69;5000305;28;20065;-77
2024/01/20 08:55:59;;;;;;;32.20;17.05;;;;;;;1.75;100.00;101370.41;5023851;28;20095;-77
2024/01/20 08:58:25;;;;;;;35.85;18.48;;;;;;;1.81;100.00;101388.50;5021179;28;20033;-77
2024/01/20 09:00:50;;;;;;;31.42;17.48;;;;;;;1.65;100.00;101379.81;4994373;28;20646;-77
2024/01/20 09:03:16;;;;;;;35.17;18.53;;;;;;;1.90;100.00;101438.00;5008921;28;20041;-76
2024/01/20 09:05:41;;;;;;;43.65;20.10;;;;;;;1.89;100.00;101445.97;5023924;28;20280;-77
2024/01/20 09:08:09;;;;;;;37.28;18.15;;;;;;;1.81;100.00;101432.41;4996335;28;20116;-76
2024/01/20 09:10:36;;;;;;;37.63;17.90;;;;;;;1.90;100.00;101438.00;5006529;28;20061;-77
2024/01/20 09:13:04;;;;;;;32.15;16.55;;;;;;;1.85;100.00;101426.88;5026693;28;20116;-77
2024/01/20 09:15:30;;;;;;;40.33;18.40;;;;;;;1.95;100.00;101424.56;5016892;28;20083;-77
2024/01/20 09:17:55;;;;;;;35.25;18.83;;;;;;;1.95;100.00;101426.34;5002459;28;20277;-77
2024/01/20 09:20:21;;;;;;;36.72;17.80;;;;;;;1.92;100.00;101419.47;5000631;28;20042;-76
2024/01/20 09:22:46;;;;;;;41.55;18.98;;;;;;;2.14;100.00;101457.72;5026958;28;20145;-77
2024/01/20 09:25:12;;;;;;;35.15;16.10;;;;;;;2.08;100.00;101425.53;5002276;28;20033;-77
2024/01/20 09:27:37;;;;;;;33.88;15.30;;;;;;;1.90;100.00;101387.94;5005470;28;20532;-77
2024/01/20 09:30:04;;;;;;;35.22;16.85;;;;;;;2.09;100.00;101405.31;4995021;28;20042;-79
2024/01/20 09:32:33;;;;;;;32.17;14.73;;;;;;;2.18;100.00;101396.84;4997112;28;20046;-77
2024/01/20 09:34:59;;;;;;;32.63;15.52;;;;;;;2.05;100.00;101375.66;5005762;28;20399;-77
2024/01/20 09:37:24;;;;;;;;;;;;;;;2.07;100.00;101355.34;5001393;28;20067;-77
2024/01/20 09:39:50;;;;;;;29.05;15.10;;;;;;;2.15;100.00;101380.38;5009045;28;20714;-76
2024/01/20 09:42:16;;;;;;;31.10;16.33;;;;;;;2.06;100.00;101361.56;5026943;28;20212;-77
2024/01/20 09:44:41;;;;;;;25.38;14.95;;;;;;;1.93;100.00;101349.22;5021668;28;20272;-77
2024/01/20 09:47:09;;;;;;;35.45;15.68;;;;;;;2.05;100.00;101365.13;5009762;28;20498;-77
2024/01/20 09:49:34;;;;;;;32.15;14.98;;;;;;;2.03;100.00;101351.19;5025730;28;20037;-77
2024/01/20 09:52:07;;;;;;;32.83;16.10;;;;;;;2.04;100.00;101339.72;5009326;28;20033;-77
2024/01/20 09:54:40;;;;;;;31.25;15.55;;;;;;;2.15;100.00;101369.81;5008531;28;20120;-77
2024/01/20 09:57:05;;;;;;;27.80;15.27;;;;;;;2.22;100.00;101377.25;5026775;28;20079;-77
2024/01/20 09:59:31;;;;;;;34.75;15.25;;;;;;;2.06;100.00;101339.63;5009143;28;20033;-76
2024/01/20 10:01:57;;;;;;;32.10;16.10;;;;;;;2.07;100.00;101336.91;5008940;28;20033;-76
2024/01/20 10:04:26;;;;;;;31.80;14.98;;;;;;;2.12;100.00;101339.25;5022508;28;20033;-77
2024/01/20 10:06:54;;;;;;;36.13;16.17;;;;;;;2.20;100.00;101325.59;5008686;28;20033;-77
2024/01/20 10:09:19;;;;;;;29.10;15.02;;;;;;;2.07;100.00;101302.66;5023769;28;20709;-76
2024/01/20 10:11:44;;;;;;;35.47;15.38;;;;;;;2.14;100.00;101311.03;5008854;28;20061;-77
2024/01/20 10:14:10;;;;;;;33.00;15.03;;;;;;;2.17;100.00;101302.09;5008354;28;20045;-77
2024/01/20 10:16:41;;;;;;;34.53;16.90;;;;;;;2.33;100.00;101300.19;5008827;28;20290;-77
2024/01/20 10:19:06;;;;;;;35.70;15.02;;;;;;;2.07;100.00;101249.97;5017598;28;20302;-77
2024/01/20 10:21:39;;;;;;;30.40;16.58;;;;;;;2.13;100.00;101282.13;5027328;28;20539;-76
2024/01/20 10:24:05;;;;;;;29.23;15.52;;;;;;;2.30;100.00;101297.75;5025696;28;20545;-77
2024/01/20 10:26:30;;;;;;;28.83;14.85;;;;;;;2.24;100.00;101270.00;5026838;28;20040;-76
2024/01/20 10:28:55;;;;;;;36.55;15.75;;;;;;;2.38;100.00;101273.56;5015609;28;20042;-77
2024/01/20 10:31:21;;;;;;;34.60;18.30;;;;;;;2.46;100.00;101256.31;4997991;28;20113;-77
2024/01/20 10:33:48;;;;;;;39.63;15.15;;;;;;;2.93;100.00;101281.41;5010763;28;20038;-77
2024/01/20 10:36:17;;;;;;;30.83;14.75;;;;;;;3.14;100.00;101225.56;5003959;28;20042;-77
2024/01/20 10:38:49;;;;;;;34.42;14.82;;;;;;;3.03;100.00;101156.81;5006190;28;20124;-76
2024/01/20 10:41:19;;;;;;;33.28;14.00;;;;;;;3.03;100.00;101152.38;5022230;28;20041;-77
2024/01/20 10:43:52;;;;;;;36.42;14.85;;;;;;;3.05;100.00;101147.03;5002178;28;20030;-77
2024/01/20 10:46:23;;;;;;;35.20;14.40;;;;;;;2.78;100.00;101089.91;5020118;28;20033;-78
2024/01/20 10:48:53;;;;;;;33.50;14.90;;;;;;;2.89;100.00;101116.41;5028873;28;20034;-77
2024/01/20 10:51:24;;;;;;;31.58;13.77;;;;;;;2.74;100.00;101085.81;5012491;28;20040;-77
2024/01/20 10:53:51;;;;;;;30.52;14.32;;;;;;;2.81;100.00;101110.81;4996023;28;20034;-76
2024/01/20 10:56:17;;;;;;;28.67;15.13;;;;;;;3.09;100.00;101146.72;5010841;28;20104;-77
2024/01/20 10:58:48;;;;;;;34.85;14.68;;;;;;;4.22;100.00;101232.16;5028852;28;20034;-77
2024/01/20 11:01:14;;;;;;;28.67;14.20;;;;;;;4.93;100.00;101143.19;5023095;28;20073;-77
2024/01/20 11:03:40;;;;;;;34.80;12.73;;;;;;;5.59;100.00;101002.19;4991450;28;20493;-78
2024/01/20 11:06:05;;;;;;;30.05;13.20;;;;;;;6.02;100.00;100839.69;5013546;28;20087;-77
2024/01/20 11:08:31;;;;;;;33.57;13.13;;;;;;;6.27;100.00;100701.38;5006780;28;20084;-77